createdAt,value
2019-06-08T00:00:48.892Z,55.80
2019-06-08T00:03:18.515Z,55.90
2019-06-08T00:05:46.898Z,56.50
2019-06-08T00:08:15.118Z,56.50
2019-06-08T00:10:43.343Z,56.70
2019-06-08T00:13:13.044Z,56.70
2019-06-08T00:15:41.450Z,56.70
2019-06-08T00:18:09.657Z,57.10
2019-06-08T00:20:37.882Z,57.20
2019-06-08T00:23:06.110Z,57.50
2019-06-08T00:25:34.343Z,57.50
2019-06-08T00:28:02.571Z,57.30
2019-06-08T00:30:30.853Z,57.00
2019-06-08T00:32:59.078Z,56.80
2019-06-08T00:35:27.286Z,56.80
2019-06-08T00:37:55.573Z,56.70
2019-06-08T00:40:25.164Z,56.50
2019-06-08T00:42:53.961Z,56.90
2019-06-08T00:45:23.603Z,56.50
2019-06-08T00:47:51.931Z,56.50
2019-06-08T00:50:21.031Z,56.40
2019-06-08T00:52:49.346Z,56.50
2019-06-08T00:55:17.583Z,56.50
2019-06-08T00:57:45.798Z,56.70
2019-06-08T01:00:14.030Z,57.90
2019-06-08T01:02:42.246Z,57.30
2019-06-08T01:05:10.457Z,57.50
2019-06-08T01:07:38.669Z,57.60
2019-06-08T01:10:07.248Z,57.60
2019-06-08T01:12:35.487Z,57.70
2019-06-08T01:15:05.260Z,57.50
2019-06-08T01:17:33.542Z,57.20
2019-06-08T01:20:01.830Z,57.00
2019-06-08T01:22:30.069Z,56.80
2019-06-08T01:24:58.283Z,56.30
2019-06-08T01:27:26.498Z,53.90
2019-06-08T01:29:54.725Z,53.00
2019-06-08T01:32:24.214Z,51.80
2019-06-08T01:34:52.760Z,52.80
2019-06-08T01:37:21.043Z,53.70
2019-06-08T01:39:49.267Z,52.30
2019-06-08T01:42:17.484Z,51.30
2019-06-08T01:44:45.702Z,51.00
2019-06-08T01:47:13.927Z,50.90
2019-06-08T01:49:42.138Z,50.80
2019-06-08T01:52:10.365Z,50.40
2019-06-08T01:54:38.584Z,49.90
2019-06-08T01:57:06.801Z,49.30
2019-06-08T01:59:35.023Z,48.50
2019-06-08T02:02:03.228Z,48.60
2019-06-08T02:04:32.979Z,48.70
2019-06-08T02:07:01.390Z,48.50
2019-06-08T02:09:30.614Z,48.40
2019-06-08T02:11:59.141Z,48.80
2019-06-08T02:14:29.201Z,48.90
2019-06-08T02:16:57.450Z,49.00
2019-06-08T02:19:26.548Z,48.80
2019-06-08T02:21:54.997Z,49.00
2019-06-08T02:24:23.735Z,48.90
2019-06-08T02:26:52.494Z,48.90
2019-06-08T02:29:20.780Z,48.80
2019-06-08T02:31:49.058Z,48.70
2019-06-08T02:34:17.325Z,49.10
2019-06-08T02:36:45.532Z,49.40
2019-06-08T02:39:13.741Z,49.50
2019-06-08T02:41:41.968Z,49.50
2019-06-08T02:44:10.190Z,49.40
2019-06-08T02:46:40.394Z,49.40
2019-06-08T02:49:08.417Z,49.10
2019-06-08T02:51:38.099Z,49.00
2019-06-08T02:54:06.629Z,49.10
2019-06-08T02:56:36.690Z,49.30
2019-06-08T02:59:06.501Z,49.60
2019-06-08T03:01:35.939Z,49.80
2019-06-08T03:04:04.759Z,49.70
2019-06-08T03:06:34.554Z,49.80
2019-06-08T03:09:03.063Z,49.60
2019-06-08T03:11:32.623Z,49.60
2019-06-08T03:14:01.326Z,49.60
2019-06-08T03:16:31.094Z,49.60
2019-06-08T03:19:09.782Z,49.90
2019-06-08T03:21:29.595Z,49.90
2019-06-08T03:23:57.815Z,50.10
2019-06-08T03:26:26.115Z,50.10
2019-06-08T03:28:54.326Z,50.20
2019-06-08T03:31:22.546Z,50.00
2019-06-08T03:33:55.879Z,49.70
2019-06-08T03:36:20.707Z,50.00
2019-06-08T03:38:48.932Z,50.10
2019-06-08T03:41:17.145Z,50.30
2019-06-08T03:43:45.361Z,50.60
2019-06-08T03:46:13.662Z,50.60
2019-06-08T03:48:43.931Z,50.80
2019-06-08T03:51:11.868Z,51.00
2019-06-08T03:53:41.998Z,51.00
2019-06-08T03:56:10.044Z,51.00
2019-06-08T03:58:39.112Z,51.10
2019-06-08T04:01:08.217Z,51.00
2019-06-08T04:03:37.490Z,51.00
2019-06-08T04:06:06.069Z,51.00
2019-06-08T04:08:34.277Z,51.10
2019-06-08T04:11:02.507Z,51.00
2019-06-08T04:13:30.726Z,51.00
2019-06-08T04:15:58.930Z,51.20
2019-06-08T04:18:27.161Z,51.10
2019-06-08T04:20:55.371Z,51.10
2019-06-08T04:23:23.586Z,51.40
2019-06-08T04:25:52.089Z,51.20
2019-06-08T04:28:20.300Z,51.10
2019-06-08T04:30:49.971Z,51.10
2019-06-08T04:33:18.519Z,51.20
2019-06-08T04:35:50.750Z,51.10
2019-06-08T04:38:19.117Z,51.00
2019-06-08T04:40:48.511Z,51.30
2019-06-08T04:43:17.306Z,51.50
2019-06-08T04:45:47.533Z,51.50
2019-06-08T04:48:15.461Z,51.70
2019-06-08T04:50:45.439Z,51.70
2019-06-08T04:53:13.622Z,51.70
2019-06-08T04:55:43.306Z,51.70
2019-06-08T04:58:12.317Z,51.50
2019-06-08T05:00:41.409Z,51.50
2019-06-08T05:03:10.507Z,51.20
2019-06-08T05:05:39.237Z,51.40
2019-06-08T05:08:08.082Z,51.50
2019-06-08T05:10:36.313Z,51.50
2019-06-08T05:13:04.792Z,51.20
2019-06-08T05:15:33.994Z,51.30
2019-06-08T05:18:05.717Z,51.50
2019-06-08T05:20:38.842Z,51.50
2019-06-08T05:23:03.894Z,51.70
2019-06-08T05:25:32.186Z,51.70
2019-06-08T05:28:00.417Z,51.70
2019-06-08T05:30:28.629Z,51.70
2019-06-08T05:32:56.850Z,51.50
2019-06-08T05:35:25.064Z,51.50
2019-06-08T05:37:53.283Z,51.90
2019-06-08T05:40:21.499Z,51.90
2019-06-08T05:42:49.987Z,52.00
2019-06-08T05:45:18.311Z,52.30
2019-06-08T05:47:47.836Z,52.30
2019-06-08T05:50:16.331Z,52.20
2019-06-08T05:52:45.804Z,52.20
2019-06-08T05:55:14.356Z,52.00
2019-06-08T05:57:42.574Z,51.80
2019-06-08T06:00:11.002Z,51.50
2019-06-08T06:02:40.202Z,51.60
2019-06-08T06:05:08.677Z,51.50
2019-06-08T06:07:36.906Z,51.20
2019-06-08T06:10:05.994Z,51.10
2019-06-08T06:12:34.217Z,51.60
2019-06-08T06:15:02.510Z,51.70
2019-06-08T06:17:30.726Z,51.80
2019-06-08T06:19:58.940Z,51.90
2019-06-08T06:22:27.163Z,51.90
2019-06-08T06:24:55.383Z,52.00
2019-06-08T06:27:23.595Z,51.60
2019-06-08T06:29:52.098Z,51.30
2019-06-08T06:32:20.516Z,51.20
2019-06-08T06:34:49.871Z,51.20
2019-06-08T06:37:18.343Z,51.00
2019-06-08T06:39:48.049Z,50.80
2019-06-08T06:42:16.786Z,50.70
2019-06-08T06:44:45.825Z,50.20
2019-06-08T06:47:14.980Z,50.00
2019-06-08T06:49:44.502Z,49.60
2019-06-08T06:52:12.901Z,49.50
2019-06-08T06:54:42.860Z,49.20
2019-06-08T06:57:11.090Z,49.00
2019-06-08T06:59:39.338Z,49.50
2019-06-08T07:02:07.543Z,49.30
2019-06-08T07:04:35.781Z,49.70
2019-06-08T07:07:04.003Z,50.40
2019-06-08T07:09:32.214Z,50.50
2019-06-08T07:12:00.438Z,50.40
2019-06-08T07:14:28.726Z,50.60
2019-06-08T07:16:58.184Z,50.40
2019-06-08T07:19:26.846Z,50.50
2019-06-08T07:21:55.085Z,50.90
2019-06-08T07:24:23.316Z,51.00
2019-06-08T07:26:52.462Z,50.80
2019-06-08T07:29:20.926Z,50.30
2019-06-08T07:31:50.343Z,49.70
2019-06-08T07:34:19.122Z,49.70
2019-06-08T07:36:48.465Z,50.00
2019-06-08T07:39:17.290Z,49.70
2019-06-08T07:41:45.536Z,49.50
2019-06-08T07:44:13.751Z,49.20
2019-06-08T07:46:41.970Z,49.10
2019-06-08T07:49:10.186Z,48.60
2019-06-08T07:51:38.422Z,48.20
2019-06-08T07:54:06.641Z,47.80
2019-06-08T07:56:34.849Z,47.20
2019-06-08T07:59:03.074Z,47.50
2019-06-08T08:01:36.099Z,47.90
2019-06-08T08:04:01.238Z,48.10
2019-06-08T08:06:30.572Z,46.90
2019-06-08T08:08:59.051Z,46.60
2019-06-08T08:11:27.250Z,46.60
2019-06-08T08:13:57.093Z,47.30
2019-06-08T08:16:25.433Z,47.00
2019-06-08T08:18:53.642Z,46.90
2019-06-08T08:21:26.030Z,46.00
2019-06-08T08:23:53.143Z,45.30
2019-06-08T08:26:21.519Z,44.20
2019-06-08T08:28:51.747Z,44.60
2019-06-08T08:31:19.775Z,45.10
2019-06-08T08:33:49.766Z,44.60
2019-06-08T08:36:20.862Z,43.60
2019-06-08T08:38:47.931Z,42.80
2019-06-08T08:41:18.159Z,42.20
2019-06-08T08:43:48.330Z,41.40
2019-06-08T08:46:17.334Z,41.30
2019-06-08T08:48:45.791Z,38.00
2019-06-08T08:51:14.012Z,37.40
2019-06-08T08:53:42.218Z,38.00
2019-06-08T08:56:10.449Z,37.50
2019-06-08T08:58:38.680Z,36.90
2019-06-08T09:01:08.224Z,35.70
2019-06-08T09:03:39.301Z,36.60
2019-06-08T09:06:08.663Z,36.90
2019-06-08T09:08:37.710Z,38.20
2019-06-08T09:11:08.120Z,37.70
2019-06-08T09:13:37.679Z,38.20
2019-06-08T09:16:08.041Z,38.10
2019-06-08T09:18:37.525Z,38.00
2019-06-08T09:21:08.187Z,37.40
2019-06-08T09:23:37.814Z,36.90
2019-06-08T09:26:11.909Z,36.50
2019-06-08T09:28:38.638Z,35.10
2019-06-08T09:31:08.262Z,34.20
2019-06-08T09:33:35.788Z,33.40
2019-06-08T09:36:04.991Z,32.50
2019-06-08T09:38:33.313Z,32.50
2019-06-08T09:41:04.815Z,32.60
2019-06-08T09:43:31.464Z,31.50
2019-06-08T09:46:02.061Z,33.00
2019-06-08T09:48:29.644Z,33.10
2019-06-08T09:51:00.415Z,33.30
2019-06-08T09:53:36.620Z,33.00
2019-06-08T09:56:02.427Z,34.00
2019-06-08T09:58:29.058Z,34.50
2019-06-08T10:01:01.042Z,33.00
2019-06-08T10:03:27.750Z,33.30
2019-06-08T10:06:01.485Z,33.20
2019-06-08T10:08:28.316Z,33.00
2019-06-08T10:10:59.452Z,32.50
2019-06-08T10:13:28.122Z,31.40
2019-06-08T10:16:00.023Z,30.20
2019-06-08T10:18:28.519Z,30.00
2019-06-08T10:21:00.409Z,30.00
2019-06-08T10:23:31.872Z,29.50
2019-06-08T10:26:00.348Z,28.80
2019-06-08T10:28:28.815Z,29.30
2019-06-08T10:30:59.618Z,29.00
2019-06-08T10:33:28.159Z,27.60
2019-06-08T10:35:59.137Z,26.30
2019-06-08T10:38:28.808Z,25.00
2019-06-08T10:41:14.815Z,24.60
2019-06-08T10:43:33.235Z,26.60
2019-06-08T10:46:08.466Z,27.50
2019-06-08T10:48:31.474Z,28.80
2019-06-08T10:51:03.357Z,29.00
2019-06-08T10:53:44.985Z,28.50
2019-06-08T10:56:01.283Z,28.30
2019-06-08T10:58:29.872Z,27.90
2019-06-08T11:01:02.173Z,27.80
2019-06-08T11:03:30.410Z,27.90
2019-06-08T11:06:00.483Z,27.20
2019-06-08T11:08:27.977Z,27.70
2019-06-08T11:10:57.937Z,27.60
2019-06-08T11:13:28.228Z,28.60
2019-06-08T11:15:58.704Z,28.40
2019-06-08T11:18:28.524Z,28.20
2019-06-08T11:20:57.968Z,28.20
2019-06-08T11:23:28.605Z,27.60
2019-06-08T11:25:59.504Z,27.30
2019-06-08T11:28:28.123Z,26.60
2019-06-08T11:30:55.778Z,25.30
2019-06-08T11:33:23.989Z,24.70
2019-06-08T11:35:52.206Z,24.20
2019-06-08T11:38:20.454Z,24.00
2019-06-08T11:40:48.713Z,24.50
2019-06-08T11:43:18.326Z,24.40
2019-06-08T11:45:48.091Z,25.00
2019-06-08T11:48:18.224Z,25.60
2019-06-08T11:50:49.028Z,25.60
2019-06-08T11:53:18.118Z,25.60
2019-06-08T11:55:50.711Z,25.40
2019-06-08T11:58:20.299Z,25.70
2019-06-08T12:01:01.410Z,26.00
2019-06-08T12:03:30.489Z,26.00
2019-06-08T12:05:58.707Z,25.80
2019-06-08T12:08:28.411Z,25.20
2019-06-08T12:11:01.071Z,25.30
2019-06-08T12:13:27.827Z,25.70
2019-06-08T12:15:58.708Z,25.50
2019-06-08T12:18:26.318Z,25.50
2019-06-08T12:20:54.529Z,25.00
2019-06-08T12:23:22.746Z,24.10
2019-06-08T12:25:50.958Z,24.70
2019-06-08T12:28:19.171Z,24.20
2019-06-08T12:30:47.908Z,24.70
2019-06-08T12:33:18.630Z,24.90
2019-06-08T12:35:47.738Z,25.10
2019-06-08T12:38:18.723Z,25.40
2019-06-08T12:40:48.365Z,25.50
2019-06-08T12:43:18.469Z,25.50
2019-06-08T12:45:45.975Z,26.50
2019-06-08T12:48:18.409Z,27.10
2019-06-08T12:50:44.132Z,27.50
2019-06-08T12:53:14.932Z,27.60
2019-06-08T12:55:42.286Z,27.90
2019-06-08T12:58:11.701Z,27.80
2019-06-08T13:00:40.629Z,27.40
2019-06-08T13:03:10.151Z,26.80
2019-06-08T13:05:38.800Z,26.80
2019-06-08T13:08:09.848Z,26.70
2019-06-08T13:10:38.340Z,26.00
2019-06-08T13:13:08.454Z,25.90
2019-06-08T13:15:38.487Z,26.30
2019-06-08T13:18:09.886Z,26.30
2019-06-08T13:20:38.764Z,26.10
2019-06-08T13:23:08.707Z,26.40
2019-06-08T13:25:42.849Z,26.00
2019-06-08T13:28:10.920Z,25.90
2019-06-08T13:30:38.833Z,26.20
2019-06-08T13:33:08.125Z,26.10
2019-06-08T13:35:39.224Z,25.40
2019-06-08T13:38:08.661Z,25.70
2019-06-08T13:40:37.778Z,25.90
2019-06-08T13:43:08.126Z,26.10
2019-06-08T13:45:39.130Z,26.10
2019-06-08T13:48:08.731Z,26.20
2019-06-08T13:50:36.631Z,26.20
2019-06-08T13:53:04.863Z,26.50
2019-06-08T13:55:48.504Z,26.70
2019-06-08T13:58:03.035Z,26.70
2019-06-08T14:00:38.090Z,26.80
2019-06-08T14:03:08.425Z,26.60
2019-06-08T14:05:38.909Z,26.90
2019-06-08T14:08:10.546Z,26.70
2019-06-08T14:10:39.072Z,26.70
2019-06-08T14:13:07.286Z,27.20
2019-06-08T14:15:37.914Z,27.00
2019-06-08T14:18:08.508Z,27.20
2019-06-08T14:20:38.259Z,26.70
2019-06-08T14:23:05.696Z,26.80
2019-06-08T14:25:47.053Z,26.30
2019-06-08T14:28:03.843Z,26.90
2019-06-08T14:30:33.280Z,27.30
2019-06-08T14:33:01.747Z,27.30
2019-06-08T14:35:29.977Z,27.10
2019-06-08T14:37:58.179Z,27.50
2019-06-08T14:40:30.996Z,27.50
2019-06-08T14:42:58.124Z,27.30
2019-06-08T14:45:28.934Z,27.30
2019-06-08T14:47:58.585Z,27.40
2019-06-08T14:50:29.268Z,27.60
2019-06-08T14:52:58.914Z,27.80
2019-06-08T14:55:31.657Z,28.00
2019-06-08T14:57:58.005Z,28.40
2019-06-08T15:00:27.469Z,28.00
2019-06-08T15:02:58.619Z,28.10
2019-06-08T15:05:28.912Z,28.60
2019-06-08T15:08:00.407Z,28.00
2019-06-08T15:10:28.055Z,28.30
2019-06-08T15:12:57.773Z,28.80
2019-06-08T15:15:26.505Z,29.20
2019-06-08T15:17:57.934Z,29.30
2019-06-08T15:20:26.168Z,29.00
2019-06-08T15:22:54.572Z,29.10
2019-06-08T15:25:22.781Z,29.10
2019-06-08T15:27:51.006Z,28.40
2019-06-08T15:30:19.231Z,28.70
2019-06-08T15:32:48.027Z,28.10
2019-06-08T15:35:18.181Z,27.90
2019-06-08T15:37:47.847Z,27.80
2019-06-08T15:40:17.748Z,28.10
2019-06-08T15:42:48.220Z,28.50
2019-06-08T15:45:18.294Z,28.40
2019-06-08T15:47:48.545Z,28.40
2019-06-08T15:50:18.016Z,28.20
2019-06-08T15:52:48.113Z,28.50
2019-06-08T15:55:18.800Z,28.70
2019-06-08T15:57:46.205Z,28.70
2019-06-08T16:00:14.491Z,28.20
2019-06-08T16:02:42.721Z,29.20
2019-06-08T16:05:10.956Z,29.40
2019-06-08T16:07:40.439Z,29.50
2019-06-08T16:10:09.129Z,29.40
2019-06-08T16:12:37.373Z,29.90
2019-06-08T16:15:07.222Z,30.00
2019-06-08T16:17:35.619Z,30.10
2019-06-08T16:20:04.382Z,30.00
2019-06-08T16:22:33.758Z,29.80
2019-06-08T16:25:02.118Z,30.50
2019-06-08T16:27:30.316Z,30.00
2019-06-08T16:29:58.550Z,30.30
2019-06-08T16:32:27.420Z,29.90
2019-06-08T16:34:55.866Z,30.10
2019-06-08T16:37:24.079Z,30.50
2019-06-08T16:39:52.302Z,30.40
2019-06-08T16:42:20.533Z,30.90
2019-06-08T16:44:49.010Z,31.00
2019-06-08T16:47:17.222Z,31.00
2019-06-08T16:49:45.774Z,30.90
2019-06-08T16:52:17.107Z,31.00
2019-06-08T16:54:44.198Z,30.70
2019-06-08T16:57:12.410Z,30.60
2019-06-08T16:59:40.639Z,31.00
2019-06-08T17:02:08.845Z,30.90
2019-06-08T17:04:37.574Z,30.90
2019-06-08T17:07:05.800Z,31.10
2019-06-08T17:09:34.267Z,30.90
2019-06-08T17:12:02.794Z,31.00
2019-06-08T17:14:32.010Z,31.30
2019-06-08T17:17:00.319Z,31.30
2019-06-08T17:19:29.861Z,31.40
2019-06-08T17:21:58.226Z,31.10
2019-06-08T17:24:26.442Z,31.40
2019-06-08T17:26:54.670Z,31.50
2019-06-08T17:29:23.218Z,31.70
2019-06-08T17:31:51.416Z,31.70
2019-06-08T17:34:20.699Z,32.10
2019-06-08T17:36:49.154Z,32.30
2019-06-08T17:39:17.370Z,32.30
2019-06-08T17:41:45.602Z,32.30
2019-06-08T17:44:13.813Z,32.70
2019-06-08T17:46:43.114Z,32.70
2019-06-08T17:49:11.984Z,32.80
2019-06-08T17:51:41.809Z,33.00
2019-06-08T17:54:10.209Z,33.20
2019-06-08T17:56:39.189Z,33.20
2019-06-08T17:59:07.538Z,33.60
2019-06-08T18:01:36.017Z,34.10
2019-06-08T18:04:04.306Z,34.30
2019-06-08T18:06:33.585Z,34.60
2019-06-08T18:09:01.915Z,34.80
2019-06-08T18:11:30.139Z,35.00
2019-06-08T18:13:58.945Z,35.30
2019-06-08T18:16:27.885Z,35.60
2019-06-08T18:18:57.743Z,35.90
2019-06-08T18:21:28.203Z,35.70
2019-06-08T18:23:57.662Z,35.80
2019-06-08T18:26:27.830Z,35.50
2019-06-08T18:28:58.151Z,35.60
2019-06-08T18:31:27.657Z,35.50
2019-06-08T18:33:57.919Z,35.80
2019-06-08T18:36:27.628Z,36.10
2019-06-08T18:38:58.023Z,36.40
2019-06-08T18:41:27.167Z,36.50
2019-06-08T18:43:58.185Z,36.80
2019-06-08T18:46:27.211Z,37.10
2019-06-08T18:48:57.744Z,37.40
2019-06-08T18:51:25.449Z,37.50
2019-06-08T18:54:07.426Z,37.70
2019-06-08T18:56:23.604Z,37.70
2019-06-08T18:58:53.676Z,37.90
2019-06-08T19:01:23.759Z,38.10
2019-06-08T19:03:52.923Z,38.30
2019-06-08T19:06:21.469Z,38.40
2019-06-08T19:08:50.981Z,38.60
2019-06-08T19:11:19.461Z,38.90
2019-06-08T19:13:47.865Z,39.00
2019-06-08T19:16:18.057Z,39.20
2019-06-08T19:18:49.974Z,39.70
2019-06-08T19:21:17.799Z,39.30
2019-06-08T19:23:49.255Z,39.00
2019-06-08T19:26:17.216Z,39.00
2019-06-08T19:28:52.130Z,39.30
2019-06-08T19:31:17.590Z,39.30
2019-06-08T19:33:49.390Z,39.50
2019-06-08T19:36:17.163Z,39.50
2019-06-08T19:38:52.069Z,39.60
2019-06-08T19:41:17.495Z,39.70
2019-06-08T19:43:53.238Z,39.70
2019-06-08T19:46:17.926Z,39.60
2019-06-08T19:48:48.171Z,39.40
2019-06-08T19:51:17.106Z,39.40
2019-06-08T19:53:51.401Z,39.40
2019-06-08T19:56:17.436Z,39.50
2019-06-08T19:58:56.027Z,39.60
2019-06-08T20:01:17.486Z,39.60
2019-06-08T20:03:45.210Z,39.70
2019-06-08T20:06:14.400Z,39.80
2019-06-08T20:08:42.979Z,39.80
2019-06-08T20:11:11.430Z,39.90
2019-06-08T20:13:39.648Z,40.00
2019-06-08T20:16:08.377Z,40.10
2019-06-08T20:18:37.506Z,40.20
2019-06-08T20:21:10.022Z,40.30
2019-06-08T20:23:38.081Z,40.50
2019-06-08T20:26:08.181Z,40.50
2019-06-08T20:28:37.269Z,40.60
2019-06-08T20:31:07.459Z,40.50
2019-06-08T20:33:37.875Z,40.70
2019-06-08T20:36:08.077Z,40.50
2019-06-08T20:38:39.678Z,40.50
2019-06-08T20:41:07.585Z,40.70
2019-06-08T20:43:38.147Z,40.70
2019-06-08T20:46:08.118Z,40.90
2019-06-08T20:48:37.779Z,40.90
2019-06-08T20:51:07.786Z,41.00
2019-06-08T20:53:38.252Z,41.10
2019-06-08T20:56:08.047Z,41.20
2019-06-08T20:58:37.175Z,41.30
2019-06-08T21:01:07.370Z,41.40
2019-06-08T21:03:35.725Z,41.50
2019-06-08T21:06:03.941Z,41.70
2019-06-08T21:08:32.159Z,42.00
2019-06-08T21:11:00.387Z,42.00
2019-06-08T21:13:28.613Z,42.20
2019-06-08T21:16:00.228Z,42.20
2019-06-08T21:18:27.610Z,42.40
2019-06-08T21:20:58.113Z,42.50
2019-06-08T21:23:28.116Z,42.40
2019-06-08T21:25:59.809Z,42.40
2019-06-08T21:28:27.990Z,42.40
2019-06-08T21:31:01.638Z,42.50
2019-06-08T21:33:25.865Z,42.70
2019-06-08T21:36:00.276Z,42.80
2019-06-08T21:38:24.546Z,42.80
2019-06-08T21:40:55.469Z,43.00
2019-06-08T21:43:22.973Z,43.10
2019-06-08T21:45:52.085Z,43.20
2019-06-08T21:48:21.129Z,43.40
2019-06-08T21:50:51.676Z,43.50
2019-06-08T21:53:19.288Z,43.50
2019-06-08T21:55:47.923Z,43.70
2019-06-08T21:58:17.867Z,43.80
2019-06-08T22:00:49.442Z,43.90
2019-06-08T22:03:17.674Z,44.00
2019-06-08T22:05:47.314Z,44.00
2019-06-08T22:08:17.345Z,44.50
2019-06-08T22:10:47.114Z,44.50
2019-06-08T22:13:17.463Z,44.40
2019-06-08T22:15:47.461Z,44.00
2019-06-08T22:18:15.410Z,44.00
2019-06-08T22:20:43.619Z,43.80
2019-06-08T22:23:11.834Z,43.60
2019-06-08T22:25:40.200Z,43.40
2019-06-08T22:28:08.647Z,43.30
2019-06-08T22:30:42.702Z,43.10
2019-06-08T22:33:06.810Z,43.30
2019-06-08T22:35:37.245Z,43.40
2019-06-08T22:38:04.989Z,43.50
2019-06-08T22:40:33.199Z,43.70
2019-06-08T22:43:01.421Z,44.00
2019-06-08T22:45:29.628Z,44.00
2019-06-08T22:48:00.449Z,44.00
2019-06-08T22:50:28.060Z,44.00
2019-06-08T22:52:59.324Z,44.00
2019-06-08T22:55:27.758Z,44.00
2019-06-08T22:57:59.608Z,44.00
2019-06-08T23:00:27.981Z,43.90
2019-06-08T23:02:59.300Z,43.70
2019-06-08T23:05:27.866Z,43.90
2019-06-08T23:07:59.733Z,44.20
2019-06-08T23:10:25.930Z,44.00
2019-06-08T23:12:54.361Z,44.30
2019-06-08T23:15:22.753Z,44.30
2019-06-08T23:17:50.979Z,44.20
2019-06-08T23:20:19.202Z,44.10
2019-06-08T23:22:47.572Z,44.30
2019-06-08T23:25:18.199Z,44.10
2019-06-08T23:27:48.238Z,44.20
2019-06-08T23:30:18.488Z,44.10
2019-06-08T23:32:48.036Z,44.00
2019-06-08T23:35:18.003Z,44.10
2019-06-08T23:37:47.751Z,44.20
2019-06-08T23:40:17.726Z,44.00
2019-06-08T23:42:47.611Z,43.80
2019-06-08T23:45:17.609Z,43.80
2019-06-08T23:47:47.855Z,43.90
2019-06-08T23:50:17.610Z,43.90
2019-06-08T23:52:47.586Z,44.00
2019-06-08T23:55:15.349Z,44.20
2019-06-08T23:57:43.565Z,44.50
